sensor_id;sensor_type;location;lat;lon;timestamp;pressure;altitude;pressure_sealevel;temperature;humidity
63132;BME280;49234;35.600;139.358;2022-08-19T00:00:41;99191.89;;;30.24;42.02
63132;BME280;49234;35.600;139.358;2022-08-19T00:03:10;99192.08;;;29.96;42.36
63132;BME280;49234;35.600;139.358;2022-08-19T00:05:39;99191.28;;;29.49;41.80
63132;BME280;49234;35.600;139.358;2022-08-19T00:08:09;99190.34;;;30.29;41.11
63132;BME280;49234;35.600;139.358;2022-08-19T00:10:38;99192.81;;;30.27;40.45
63132;BME280;49234;35.600;139.358;2022-08-19T00:13:07;99194.13;;;30.69;38.99
63132;BME280;49234;35.600;139.358;2022-08-19T00:15:36;99183.89;;;30.65;40.12
63132;BME280;49234;35.600;139.358;2022-08-19T00:18:06;99188.84;;;30.47;40.22
63132;BME280;49234;35.600;139.358;2022-08-19T00:20:35;99192.06;;;30.91;39.05
63132;BME280;49234;35.600;139.358;2022-08-19T00:23:04;99193.38;;;30.96;38.55
63132;BME280;49234;35.600;139.358;2022-08-19T00:25:33;99196.26;;;30.89;39.29
63132;BME280;49234;35.600;139.358;2022-08-19T00:28:03;99199.24;;;30.89;40.20
63132;BME280;49234;35.600;139.358;2022-08-19T00:30:33;99196.30;;;30.56;40.15
63132;BME280;49234;35.600;139.358;2022-08-19T00:33:02;99198.27;;;30.89;40.63
63132;BME280;49234;35.600;139.358;2022-08-19T00:35:31;99197.94;;;31.01;40.60
63132;BME280;49234;35.600;139.358;2022-08-19T00:38:01;99193.09;;;31.30;39.82
63132;BME280;49234;35.600;139.358;2022-08-19T00:40:30;99194.53;;;30.87;38.49
63132;BME280;49234;35.600;139.358;2022-08-19T00:43:00;99193.99;;;31.02;38.39
63132;BME280;49234;35.600;139.358;2022-08-19T00:45:30;99193.46;;;30.63;38.80
63132;BME280;49234;35.600;139.358;2022-08-19T00:48:00;99194.25;;;30.76;38.96
63132;BME280;49234;35.600;139.358;2022-08-19T00:50:28;99199.26;;;31.02;38.99
63132;BME280;49234;35.600;139.358;2022-08-19T00:52:58;99195.09;;;31.09;39.56
63132;BME280;49234;35.600;139.358;2022-08-19T00:55:28;99196.45;;;31.25;38.18
63132;BME280;49234;35.600;139.358;2022-08-19T00:58:01;99202.72;;;31.52;39.25
63132;BME280;49234;35.600;139.358;2022-08-19T01:00:31;99204.21;;;30.95;39.00
63132;BME280;49234;35.600;139.358;2022-08-19T01:03:00;99201.65;;;30.96;39.12
63132;BME280;49234;35.600;139.358;2022-08-19T01:05:30;99198.49;;;30.91;39.41
63132;BME280;49234;35.600;139.358;2022-08-19T01:08:02;99198.87;;;31.30;39.26
63132;BME280;49234;35.600;139.358;2022-08-19T01:10:37;99195.17;;;31.03;38.45
63132;BME280;49234;35.600;139.358;2022-08-19T01:13:08;99186.75;;;31.56;38.47
63132;BME280;49234;35.600;139.358;2022-08-19T01:15:43;99183.37;;;30.89;38.97
63132;BME280;49234;35.600;139.358;2022-08-19T01:18:15;99181.10;;;31.38;37.99
63132;BME280;49234;35.600;139.358;2022-08-19T01:20:46;99182.38;;;31.72;37.92
63132;BME280;49234;35.600;139.358;2022-08-19T01:23:16;99178.35;;;31.50;38.28
63132;BME280;49234;35.600;139.358;2022-08-19T01:25:49;99174.87;;;31.05;38.19
63132;BME280;49234;35.600;139.358;2022-08-19T01:28:20;99171.71;;;31.42;37.48
63132;BME280;49234;35.600;139.358;2022-08-19T01:30:49;99168.03;;;31.54;36.89
63132;BME280;49234;35.600;139.358;2022-08-19T01:33:18;99171.06;;;31.55;37.65
63132;BME280;49234;35.600;139.358;2022-08-19T01:35:49;99167.09;;;31.85;37.26
63132;BME280;49234;35.600;139.358;2022-08-19T01:38:22;99165.16;;;32.16;37.82
63132;BME280;49234;35.600;139.358;2022-08-19T01:40:52;99164.82;;;32.23;37.25
63132;BME280;49234;35.600;139.358;2022-08-19T01:43:21;99157.52;;;32.31;37.32
63132;BME280;49234;35.600;139.358;2022-08-19T01:45:51;99153.53;;;32.63;37.09
63132;BME280;49234;35.600;139.358;2022-08-19T01:48:20;99154.69;;;31.83;36.85
63132;BME280;49234;35.600;139.358;2022-08-19T01:50:49;99151.63;;;32.41;37.18
63132;BME280;49234;35.600;139.358;2022-08-19T01:53:19;99157.20;;;32.53;36.86
63132;BME280;49234;35.600;139.358;2022-08-19T01:55:48;99148.14;;;31.91;37.17
63132;BME280;49234;35.600;139.358;2022-08-19T01:58:20;99151.51;;;32.60;36.84
63132;BME280;49234;35.600;139.358;2022-08-19T02:00:51;99147.79;;;32.67;35.85
63132;BME280;49234;35.600;139.358;2022-08-19T02:03:20;99142.48;;;32.01;36.62
63132;BME280;49234;35.600;139.358;2022-08-19T02:05:55;99138.05;;;32.75;34.80
63132;BME280;49234;35.600;139.358;2022-08-19T02:08:25;99137.48;;;32.37;35.20
63132;BME280;49234;35.600;139.358;2022-08-19T02:10:55;99134.44;;;32.77;34.65
63132;BME280;49234;35.600;139.358;2022-08-19T02:13:26;99130.46;;;32.26;34.63
63132;BME280;49234;35.600;139.358;2022-08-19T02:15:55;99126.74;;;32.42;35.82
63132;BME280;49234;35.600;139.358;2022-08-19T02:18:24;99120.90;;;31.98;35.35
63132;BME280;49234;35.600;139.358;2022-08-19T02:20:54;99120.96;;;32.16;36.12
63132;BME280;49234;35.600;139.358;2022-08-19T02:23:23;99114.34;;;32.06;34.75
63132;BME280;49234;35.600;139.358;2022-08-19T02:25:52;99108.27;;;32.32;35.82
63132;BME280;49234;35.600;139.358;2022-08-19T02:28:21;99098.11;;;32.62;35.29
63132;BME280;49234;35.600;139.358;2022-08-19T02:30:51;99087.90;;;32.45;34.45
63132;BME280;49234;35.600;139.358;2022-08-19T02:33:20;99093.95;;;31.93;36.28
63132;BME280;49234;35.600;139.358;2022-08-19T02:35:50;99092.38;;;32.41;35.46
63132;BME280;49234;35.600;139.358;2022-08-19T02:38:19;99076.75;;;32.35;34.51
63132;BME280;49234;35.600;139.358;2022-08-19T02:40:52;99081.32;;;32.72;34.09
63132;BME280;49234;35.600;139.358;2022-08-19T02:43:23;99077.15;;;32.21;35.01
63132;BME280;49234;35.600;139.358;2022-08-19T02:45:52;99077.20;;;32.28;34.88
63132;BME280;49234;35.600;139.358;2022-08-19T02:48:23;99072.82;;;32.34;35.10
63132;BME280;49234;35.600;139.358;2022-08-19T02:50:54;99072.16;;;31.99;35.40
63132;BME280;49234;35.600;139.358;2022-08-19T02:53:26;99072.81;;;32.05;35.15
63132;BME280;49234;35.600;139.358;2022-08-19T02:55:56;99079.19;;;32.36;34.92
63132;BME280;49234;35.600;139.358;2022-08-19T02:58:25;99074.66;;;32.19;34.93
63132;BME280;49234;35.600;139.358;2022-08-19T03:00:56;99077.38;;;32.51;34.95
63132;BME280;49234;35.600;139.358;2022-08-19T03:03:26;99076.51;;;31.85;35.17
63132;BME280;49234;35.600;139.358;2022-08-19T03:06:06;99062.38;;;32.60;34.93
63132;BME280;49234;35.600;139.358;2022-08-19T03:08:36;99065.29;;;32.51;34.94
63132;BME280;49234;35.600;139.358;2022-08-19T03:11:05;99059.18;;;32.49;34.57
63132;BME280;49234;35.600;139.358;2022-08-19T03:13:34;99062.14;;;32.95;34.95
63132;BME280;49234;35.600;139.358;2022-08-19T03:16:05;99052.17;;;32.64;34.50
63132;BME280;49234;35.600;139.358;2022-08-19T03:18:35;99051.70;;;32.22;34.58
63132;BME280;49234;35.600;139.358;2022-08-19T03:21:04;99059.80;;;33.32;34.26
63132;BME280;49234;35.600;139.358;2022-08-19T03:23:34;99057.14;;;33.06;33.97
63132;BME280;49234;35.600;139.358;2022-08-19T03:26:05;99051.33;;;32.20;34.74
63132;BME280;49234;35.600;139.358;2022-08-19T03:28:35;99046.66;;;32.58;34.40
63132;BME280;49234;35.600;139.358;2022-08-19T03:31:06;99047.95;;;32.71;34.54
63132;BME280;49234;35.600;139.358;2022-08-19T03:33:35;99041.70;;;32.71;34.30
63132;BME280;49234;35.600;139.358;2022-08-19T03:36:12;99047.96;;;32.69;34.44
63132;BME280;49234;35.600;139.358;2022-08-19T03:38:43;99044.88;;;32.58;33.72
63132;BME280;49234;35.600;139.358;2022-08-19T03:41:14;99036.21;;;32.37;34.16
63132;BME280;49234;35.600;139.358;2022-08-19T03:43:45;99032.36;;;32.04;34.33
63132;BME280;49234;35.600;139.358;2022-08-19T03:46:16;99033.70;;;32.73;33.81
63132;BME280;49234;35.600;139.358;2022-08-19T03:48:46;99030.21;;;32.54;33.64
63132;BME280;49234;35.600;139.358;2022-08-19T03:51:20;99031.15;;;33.32;32.55
63132;BME280;49234;35.600;139.358;2022-08-19T03:53:50;99024.27;;;32.77;33.18
63132;BME280;49234;35.600;139.358;2022-08-19T03:56:21;99014.96;;;33.37;32.56
63132;BME280;49234;35.600;139.358;2022-08-19T03:58:50;99012.75;;;32.86;33.63
63132;BME280;49234;35.600;139.358;2022-08-19T04:01:25;99015.76;;;32.88;32.85
63132;BME280;49234;35.600;139.358;2022-08-19T04:03:54;99017.21;;;33.03;32.01
63132;BME280;49234;35.600;139.358;2022-08-19T04:06:26;99013.96;;;32.85;32.39
63132;BME280;49234;35.600;139.358;2022-08-19T04:08:56;99009.88;;;32.80;32.96
63132;BME280;49234;35.600;139.358;2022-08-19T04:11:28;99012.46;;;32.38;33.38
63132;BME280;49234;35.600;139.358;2022-08-19T04:13:57;99004.32;;;32.78;33.03
63132;BME280;49234;35.600;139.358;2022-08-19T04:16:27;98999.15;;;32.32;33.09
63132;BME280;49234;35.600;139.358;2022-08-19T04:18:59;99003.77;;;32.65;32.78
63132;BME280;49234;35.600;139.358;2022-08-19T04:21:28;99007.18;;;32.28;32.45
63132;BME280;49234;35.600;139.358;2022-08-19T04:23:59;98999.03;;;33.19;32.41
63132;BME280;49234;35.600;139.358;2022-08-19T04:26:30;99000.56;;;32.36;31.81
63132;BME280;49234;35.600;139.358;2022-08-19T04:29:00;98995.03;;;32.30;32.25
63132;BME280;49234;35.600;139.358;2022-08-19T04:31:31;98996.31;;;32.33;31.97
63132;BME280;49234;35.600;139.358;2022-08-19T04:34:02;98998.25;;;32.88;31.20
63132;BME280;49234;35.600;139.358;2022-08-19T04:36:33;98989.36;;;32.49;30.74
63132;BME280;49234;35.600;139.358;2022-08-19T04:39:06;98989.98;;;32.88;31.15
63132;BME280;49234;35.600;139.358;2022-08-19T04:41:37;98988.84;;;32.45;31.57
63132;BME280;49234;35.600;139.358;2022-08-19T04:44:09;98986.91;;;32.79;31.45
63132;BME280;49234;35.600;139.358;2022-08-19T04:46:38;98979.69;;;32.81;31.03
63132;BME280;49234;35.600;139.358;2022-08-19T04:49:08;98985.10;;;33.13;30.42
63132;BME280;49234;35.600;139.358;2022-08-19T04:51:40;98973.70;;;32.31;31.58
63132;BME280;49234;35.600;139.358;2022-08-19T04:54:10;98965.69;;;32.80;29.87
63132;BME280;49234;35.600;139.358;2022-08-19T04:56:41;98970.91;;;32.65;31.23
63132;BME280;49234;35.600;139.358;2022-08-19T04:59:10;98979.58;;;32.55;30.70
63132;BME280;49234;35.600;139.358;2022-08-19T05:01:42;98966.80;;;32.64;30.20
63132;BME280;49234;35.600;139.358;2022-08-19T05:04:11;98968.02;;;32.74;30.79
63132;BME280;49234;35.600;139.358;2022-08-19T05:06:41;98973.52;;;32.62;29.53
63132;BME280;49234;35.600;139.358;2022-08-19T05:09:10;98977.26;;;33.13;30.32
63132;BME280;49234;35.600;139.358;2022-08-19T05:11:39;98969.34;;;32.45;29.80
63132;BME280;49234;35.600;139.358;2022-08-19T05:14:10;98968.17;;;32.63;30.54
63132;BME280;49234;35.600;139.358;2022-08-19T05:16:40;98984.01;;;32.84;29.44
63132;BME280;49234;35.600;139.358;2022-08-19T05:19:10;98978.09;;;33.02;30.36
63132;BME280;49234;35.600;139.358;2022-08-19T05:21:40;98971.77;;;32.69;29.56
63132;BME280;49234;35.600;139.358;2022-08-19T05:24:10;98967.08;;;33.12;29.93
63132;BME280;49234;35.600;139.358;2022-08-19T05:26:41;98972.47;;;32.55;30.20
63132;BME280;49234;35.600;139.358;2022-08-19T05:29:10;98978.43;;;33.01;29.58
63132;BME280;49234;35.600;139.358;2022-08-19T05:31:40;98974.68;;;33.11;29.23
63132;BME280;49234;35.600;139.358;2022-08-19T05:34:10;98974.57;;;33.02;29.14
63132;BME280;49234;35.600;139.358;2022-08-19T05:36:42;98971.23;;;32.88;29.07
63132;BME280;49234;35.600;139.358;2022-08-19T05:39:14;98979.27;;;32.79;29.20
63132;BME280;49234;35.600;139.358;2022-08-19T05:41:45;98978.53;;;33.09;28.54
63132;BME280;49234;35.600;139.358;2022-08-19T05:44:16;98975.92;;;32.59;28.87
63132;BME280;49234;35.600;139.358;2022-08-19T05:46:47;98968.92;;;32.73;28.91
63132;BME280;49234;35.600;139.358;2022-08-19T05:49:18;98966.07;;;32.63;28.82
63132;BME280;49234;35.600;139.358;2022-08-19T05:51:47;98972.45;;;32.64;28.73
63132;BME280;49234;35.600;139.358;2022-08-19T05:54:18;98969.31;;;32.78;28.30
63132;BME280;49234;35.600;139.358;2022-08-19T05:56:47;98974.08;;;32.36;28.91
63132;BME280;49234;35.600;139.358;2022-08-19T05:59:18;98971.67;;;32.56;29.09
63132;BME280;49234;35.600;139.358;2022-08-19T06:01:49;98970.87;;;33.22;27.86
63132;BME280;49234;35.600;139.358;2022-08-19T06:04:24;98973.24;;;32.99;28.12
63132;BME280;49234;35.600;139.358;2022-08-19T06:06:54;98979.66;;;32.93;28.56
63132;BME280;49234;35.600;139.358;2022-08-19T06:09:24;98973.97;;;32.69;28.29
63132;BME280;49234;35.600;139.358;2022-08-19T06:11:55;98976.70;;;32.75;29.19
63132;BME280;49234;35.600;139.358;2022-08-19T06:14:27;98983.41;;;32.18;29.12
63132;BME280;49234;35.600;139.358;2022-08-19T06:16:58;98974.87;;;32.44;28.52
63132;BME280;49234;35.600;139.358;2022-08-19T06:19:27;98971.36;;;31.65;29.53
63132;BME280;49234;35.600;139.358;2022-08-19T06:21:58;98985.44;;;32.57;28.62
63132;BME280;49234;35.600;139.358;2022-08-19T06:24:30;98983.25;;;31.61;29.71
63132;BME280;49234;35.600;139.358;2022-08-19T06:27:01;98977.56;;;32.89;29.15
63132;BME280;49234;35.600;139.358;2022-08-19T06:29:30;98977.60;;;32.71;28.46
63132;BME280;49234;35.600;139.358;2022-08-19T06:32:02;98977.45;;;31.85;29.20
63132;BME280;49234;35.600;139.358;2022-08-19T06:34:33;98978.03;;;31.97;30.21
63132;BME280;49234;35.600;139.358;2022-08-19T06:37:02;98984.19;;;32.19;29.53
63132;BME280;49234;35.600;139.358;2022-08-19T06:39:37;98986.92;;;31.93;30.37
63132;BME280;49234;35.600;139.358;2022-08-19T06:42:07;98992.51;;;32.34;29.56
63132;BME280;49234;35.600;139.358;2022-08-19T06:44:38;98985.47;;;32.25;30.00
63132;BME280;49234;35.600;139.358;2022-08-19T06:47:10;98994.74;;;32.65;29.81
63132;BME280;49234;35.600;139.358;2022-08-19T06:49:39;98993.14;;;32.40;30.19
63132;BME280;49234;35.600;139.358;2022-08-19T06:52:08;99008.65;;;31.76;29.52
63132;BME280;49234;35.600;139.358;2022-08-19T06:54:39;99008.47;;;32.31;29.91
63132;BME280;49234;35.600;139.358;2022-08-19T06:57:07;99012.52;;;32.96;29.60
63132;BME280;49234;35.600;139.358;2022-08-19T06:59:37;99008.55;;;32.10;29.78
63132;BME280;49234;35.600;139.358;2022-08-19T07:02:07;99012.30;;;32.51;29.90
63132;BME280;49234;35.600;139.358;2022-08-19T07:04:36;99012.50;;;32.35;29.84
63132;BME280;49234;35.600;139.358;2022-08-19T07:07:08;99005.71;;;31.91;31.40
63132;BME280;49234;35.600;139.358;2022-08-19T07:09:39;99019.61;;;31.80;31.36
63132;BME280;49234;35.600;139.358;2022-08-19T07:12:11;99018.56;;;31.87;31.29
63132;BME280;49234;35.600;139.358;2022-08-19T07:14:40;99024.29;;;32.48;30.72
63132;BME280;49234;35.600;139.358;2022-08-19T07:17:11;99012.57;;;32.07;31.34
63132;BME280;49234;35.600;139.358;2022-08-19T07:19:41;99015.40;;;31.95;31.84
63132;BME280;49234;35.600;139.358;2022-08-19T07:22:10;99017.46;;;32.28;31.12
63132;BME280;49234;35.600;139.358;2022-08-19T07:24:39;99020.16;;;32.09;30.93
63132;BME280;49234;35.600;139.358;2022-08-19T07:27:09;99032.45;;;31.96;32.51
63132;BME280;49234;35.600;139.358;2022-08-19T07:29:38;99022.90;;;31.17;32.53
63132;BME280;49234;35.600;139.358;2022-08-19T07:32:07;99019.24;;;31.75;32.10
63132;BME280;49234;35.600;139.358;2022-08-19T07:34:36;99023.35;;;31.79;31.78
63132;BME280;49234;35.600;139.358;2022-08-19T07:37:06;99031.02;;;31.23;32.61
63132;BME280;49234;35.600;139.358;2022-08-19T07:39:37;99025.60;;;30.80;32.75
63132;BME280;49234;35.600;139.358;2022-08-19T07:42:09;99033.27;;;31.12;32.98
63132;BME280;49234;35.600;139.358;2022-08-19T07:44:39;99035.66;;;31.29;32.20
63132;BME280;49234;35.600;139.358;2022-08-19T07:47:08;99035.13;;;31.44;32.96
63132;BME280;49234;35.600;139.358;2022-08-19T07:49:37;99033.57;;;31.39;33.09
63132;BME280;49234;35.600;139.358;2022-08-19T07:52:08;99026.84;;;31.51;32.07
63132;BME280;49234;35.600;139.358;2022-08-19T07:54:39;99026.07;;;31.16;33.34
63132;BME280;49234;35.600;139.358;2022-08-19T07:57:08;99028.72;;;31.01;34.08
63132;BME280;49234;35.600;139.358;2022-08-19T07:59:37;99030.84;;;30.91;33.03
63132;BME280;49234;35.600;139.358;2022-08-19T08:02:07;99036.36;;;31.24;33.48
63132;BME280;49234;35.600;139.358;2022-08-19T08:04:36;99030.13;;;31.05;33.73
63132;BME280;49234;35.600;139.358;2022-08-19T08:07:07;99025.34;;;30.89;33.85
63132;BME280;49234;35.600;139.358;2022-08-19T08:09:39;99025.48;;;30.58;34.24
63132;BME280;49234;35.600;139.358;2022-08-19T08:12:12;99018.25;;;30.79;33.95
63132;BME280;49234;35.600;139.358;2022-08-19T08:14:44;99018.10;;;31.03;32.97
63132;BME280;49234;35.600;139.358;2022-08-19T08:17:13;99020.07;;;30.50;33.71
63132;BME280;49234;35.600;139.358;2022-08-19T08:19:44;99026.56;;;30.31;33.77
63132;BME280;49234;35.600;139.358;2022-08-19T08:22:17;99020.20;;;30.55;33.81
63132;BME280;49234;35.600;139.358;2022-08-19T08:24:46;99016.20;;;30.54;34.18
63132;BME280;49234;35.600;139.358;2022-08-19T08:27:16;99020.13;;;30.54;34.69
63132;BME280;49234;35.600;139.358;2022-08-19T08:29:45;99021.46;;;30.47;35.42
63132;BME280;49234;35.600;139.358;2022-08-19T08:32:14;99016.58;;;30.09;35.53
63132;BME280;49234;35.600;139.358;2022-08-19T08:34:44;99015.42;;;30.56;35.36
63132;BME280;49234;35.600;139.358;2022-08-19T08:37:13;99014.56;;;30.41;36.29
63132;BME280;49234;35.600;139.358;2022-08-19T08:39:43;99021.48;;;29.96;36.95
63132;BME280;49234;35.600;139.358;2022-08-19T08:42:19;99016.28;;;29.72;37.28
63132;BME280;49234;35.600;139.358;2022-08-19T08:44:59;99016.23;;;30.02;37.83
63132;BME280;49234;35.600;139.358;2022-08-19T08:47:33;99015.12;;;30.21;37.42
63132;BME280;49234;35.600;139.358;2022-08-19T08:50:06;99026.16;;;30.47;37.42
63132;BME280;49234;35.600;139.358;2022-08-19T08:52:39;99026.58;;;30.58;37.65
63132;BME280;49234;35.600;139.358;2022-08-19T08:55:14;99031.91;;;30.09;38.24
63132;BME280;49234;35.600;139.358;2022-08-19T08:57:52;99036.73;;;29.95;38.41
63132;BME280;49234;35.600;139.358;2022-08-19T09:00:25;99046.15;;;29.59;39.40
63132;BME280;49234;35.600;139.358;2022-08-19T09:02:56;99042.41;;;29.78;39.51
63132;BME280;49234;35.600;139.358;2022-08-19T09:05:30;99046.07;;;29.52;40.10
63132;BME280;49234;35.600;139.358;2022-08-19T09:08:08;99045.44;;;29.98;39.60
63132;BME280;49234;35.600;139.358;2022-08-19T09:10:46;99043.81;;;29.87;39.55
63132;BME280;49234;35.600;139.358;2022-08-19T09:13:23;99043.60;;;29.47;39.70
63132;BME280;49234;35.600;139.358;2022-08-19T09:16:00;99040.20;;;29.46;39.54
63132;BME280;49234;35.600;139.358;2022-08-19T09:18:42;99044.47;;;29.33;39.49
63132;BME280;49234;35.600;139.358;2022-08-19T09:21:12;99045.93;;;29.96;38.96
63132;BME280;49234;35.600;139.358;2022-08-19T09:23:41;99049.58;;;29.82;38.96
63132;BME280;49234;35.600;139.358;2022-08-19T09:26:13;99051.14;;;29.11;39.78
63132;BME280;49234;35.600;139.358;2022-08-19T09:28:44;99054.19;;;29.97;39.11
63132;BME280;49234;35.600;139.358;2022-08-19T09:31:15;99051.45;;;29.42;39.41
63132;BME280;49234;35.600;139.358;2022-08-19T09:33:45;99057.67;;;29.52;38.61
63132;BME280;49234;35.600;139.358;2022-08-19T09:36:16;99058.10;;;29.92;38.58
63132;BME280;49234;35.600;139.358;2022-08-19T09:38:45;99065.59;;;29.57;38.68
63132;BME280;49234;35.600;139.358;2022-08-19T09:41:17;99067.41;;;29.65;38.67
63132;BME280;49234;35.600;139.358;2022-08-19T09:43:50;99068.48;;;30.02;38.00
63132;BME280;49234;35.600;139.358;2022-08-19T09:46:20;99073.51;;;29.48;38.85
63132;BME280;49234;35.600;139.358;2022-08-19T09:48:50;99073.34;;;29.09;39.01
63132;BME280;49234;35.600;139.358;2022-08-19T09:51:22;99075.45;;;30.02;38.17
63132;BME280;49234;35.600;139.358;2022-08-19T09:53:52;99075.76;;;29.81;38.56
63132;BME280;49234;35.600;139.358;2022-08-19T09:56:22;99073.65;;;29.61;39.05
63132;BME280;49234;35.600;139.358;2022-08-19T09:58:52;99078.53;;;29.53;38.80
63132;BME280;49234;35.600;139.358;2022-08-19T10:01:23;99089.19;;;29.22;39.16
63132;BME280;49234;35.600;139.358;2022-08-19T10:03:54;99086.58;;;29.62;38.95
63132;BME280;49234;35.600;139.358;2022-08-19T10:06:25;99091.56;;;29.52;39.06
63132;BME280;49234;35.600;139.358;2022-08-19T10:08:54;99094.81;;;29.82;38.56
63132;BME280;49234;35.600;139.358;2022-08-19T10:11:24;99102.91;;;29.82;39.11
63132;BME280;49234;35.600;139.358;2022-08-19T10:13:53;99101.25;;;29.44;39.23
63132;BME280;49234;35.600;139.358;2022-08-19T10:16:25;99103.17;;;29.75;38.97
63132;BME280;49234;35.600;139.358;2022-08-19T10:18:54;99109.14;;;29.64;39.18
63132;BME280;49234;35.600;139.358;2022-08-19T10:21:25;99111.39;;;29.15;39.50
63132;BME280;49234;35.600;139.358;2022-08-19T10:23:57;99109.62;;;28.95;40.14
63132;BME280;49234;35.600;139.358;2022-08-19T10:26:29;99114.09;;;28.68;40.13
63132;BME280;49234;35.600;139.358;2022-08-19T10:28:59;99122.32;;;28.74;40.60
63132;BME280;49234;35.600;139.358;2022-08-19T10:31:30;99126.83;;;28.86;40.16
63132;BME280;49234;35.600;139.358;2022-08-19T10:34:00;99122.89;;;29.17;40.32
63132;BME280;49234;35.600;139.358;2022-08-19T10:36:31;99122.64;;;29.43;39.87
63132;BME280;49234;35.600;139.358;2022-08-19T10:39:04;99132.02;;;29.49;40.00
63132;BME280;49234;35.600;139.358;2022-08-19T10:41:36;99130.20;;;28.72;41.33
63132;BME280;49234;35.600;139.358;2022-08-19T10:44:08;99138.73;;;29.44;41.04
63132;BME280;49234;35.600;139.358;2022-08-19T10:46:39;99140.20;;;29.21;41.58
63132;BME280;49234;35.600;139.358;2022-08-19T10:49:10;99142.01;;;29.62;41.64
63132;BME280;49234;35.600;139.358;2022-08-19T10:51:39;99139.60;;;28.94;42.24
63132;BME280;49234;35.600;139.358;2022-08-19T10:54:09;99141.68;;;29.24;42.23
63132;BME280;49234;35.600;139.358;2022-08-19T10:56:38;99151.79;;;29.28;41.90
63132;BME280;49234;35.600;139.358;2022-08-19T10:59:08;99146.35;;;28.98;42.21
63132;BME280;49234;35.600;139.358;2022-08-19T11:01:36;99152.81;;;29.10;42.17
63132;BME280;49234;35.600;139.358;2022-08-19T11:04:06;99155.75;;;29.28;42.68
63132;BME280;49234;35.600;139.358;2022-08-19T11:06:36;99150.64;;;28.42;44.94
63132;BME280;49234;35.600;139.358;2022-08-19T11:09:07;99153.41;;;28.88;44.02
63132;BME280;49234;35.600;139.358;2022-08-19T11:11:37;99158.54;;;28.52;44.95
63132;BME280;49234;35.600;139.358;2022-08-19T11:14:05;99159.26;;;28.64;44.81
63132;BME280;49234;35.600;139.358;2022-08-19T11:16:35;99153.75;;;28.72;45.05
63132;BME280;49234;35.600;139.358;2022-08-19T11:19:05;99156.96;;;28.82;45.07
63132;BME280;49234;35.600;139.358;2022-08-19T11:21:37;99159.09;;;28.32;45.55
63132;BME280;49234;35.600;139.358;2022-08-19T11:24:10;99161.43;;;28.46;45.59
63132;BME280;49234;35.600;139.358;2022-08-19T11:26:41;99165.13;;;28.59;45.25
63132;BME280;49234;35.600;139.358;2022-08-19T11:29:12;99164.57;;;28.53;45.42
63132;BME280;49234;35.600;139.358;2022-08-19T11:31:44;99168.20;;;29.14;44.99
63132;BME280;49234;35.600;139.358;2022-08-19T11:34:22;99166.82;;;28.93;45.38
63132;BME280;49234;35.600;139.358;2022-08-19T11:36:52;99168.40;;;29.20;44.83
63132;BME280;49234;35.600;139.358;2022-08-19T11:39:22;99169.14;;;28.63;46.07
63132;BME280;49234;35.600;139.358;2022-08-19T11:41:52;99170.85;;;28.80;45.31
63132;BME280;49234;35.600;139.358;2022-08-19T11:44:20;99165.40;;;28.49;45.78
63132;BME280;49234;35.600;139.358;2022-08-19T11:46:50;99165.57;;;28.51;45.33
63132;BME280;49234;35.600;139.358;2022-08-19T11:49:20;99158.70;;;29.17;44.87
63132;BME280;49234;35.600;139.358;2022-08-19T11:51:49;99155.37;;;29.15;45.21
63132;BME280;49234;35.600;139.358;2022-08-19T11:54:18;99160.07;;;28.57;45.72
63132;BME280;49234;35.600;139.358;2022-08-19T11:56:47;99156.97;;;28.69;45.62
63132;BME280;49234;35.600;139.358;2022-08-19T11:59:17;99156.10;;;28.76;45.41
63132;BME280;49234;35.600;139.358;2022-08-19T12:01:46;99149.46;;;29.06;45.27
63132;BME280;49234;35.600;139.358;2022-08-19T12:04:16;99146.74;;;28.46;45.50
63132;BME280;49234;35.600;139.358;2022-08-19T12:06:45;99146.40;;;28.95;44.92
63132;BME280;49234;35.600;139.358;2022-08-19T12:09:14;99144.94;;;28.90;45.37
63132;BME280;49234;35.600;139.358;2022-08-19T12:11:43;99140.72;;;28.68;45.25
63132;BME280;49234;35.600;139.358;2022-08-19T12:14:14;99139.01;;;28.46;45.37
63132;BME280;49234;35.600;139.358;2022-08-19T12:16:45;99135.30;;;28.49;45.35
63132;BME280;49234;35.600;139.358;2022-08-19T12:19:14;99136.47;;;28.81;45.41
63132;BME280;49234;35.600;139.358;2022-08-19T12:21:43;99136.67;;;28.94;45.35
63132;BME280;49234;35.600;139.358;2022-08-19T12:24:13;99134.91;;;28.66;45.32
63132;BME280;49234;35.600;139.358;2022-08-19T12:26:47;99132.95;;;28.87;45.02
63132;BME280;49234;35.600;139.358;2022-08-19T12:29:15;99132.93;;;28.87;44.92
63132;BME280;49234;35.600;139.358;2022-08-19T12:31:45;99136.07;;;29.09;44.75
63132;BME280;49234;35.600;139.358;2022-08-19T12:34:14;99132.04;;;29.06;45.17
63132;BME280;49234;35.600;139.358;2022-08-19T12:36:43;99129.93;;;28.69;45.47
63132;BME280;49234;35.600;139.358;2022-08-19T12:39:12;99128.14;;;28.05;46.28
63132;BME280;49234;35.600;139.358;2022-08-19T12:41:42;99122.63;;;29.11;45.44
63132;BME280;49234;35.600;139.358;2022-08-19T12:44:11;99124.16;;;29.37;45.10
63132;BME280;49234;35.600;139.358;2022-08-19T12:46:40;99121.48;;;28.91;45.32
63132;BME280;49234;35.600;139.358;2022-08-19T12:49:08;99118.45;;;28.68;46.59
63132;BME280;49234;35.600;139.358;2022-08-19T12:51:38;99113.58;;;28.35;47.51
63132;BME280;49234;35.600;139.358;2022-08-19T12:54:06;99108.69;;;27.93;48.06
63132;BME280;49234;35.600;139.358;2022-08-19T12:56:37;99115.03;;;28.48;47.85